Time;durP1;ratioP1;P1;durP2;ratioP2;P2;SDS_P1;SDS_P2;PMS_P1;PMS_P2;Temp;Humidity;BMP_temperature;BMP_pressure;BME280_temperature;BME280_humidity;BME280_pressure;Samples;Min_cycle;Max_cycle;Signal;HPM_P1;HPM_P2
2023/07/07 00:01:10;;;;;;;3.80;2.70;;;15.80;1.00;;;;;;5136583;28;20050;-71
2023/07/07 00:03:42;;;;;;;2.30;1.90;;;15.80;1.00;;;;;;5110549;28;20044;-71
2023/07/07 00:06:21;;;;;;;3.55;2.08;;;15.70;1.00;;;;;;5102877;28;20049;-71
2023/07/07 00:09:03;;;;;;;5.80;2.45;;;15.70;1.00;;;;;;5153551;28;20045;-71
2023/07/07 00:11:37;;;;;;;2.90;2.38;;;15.70;1.00;;;;;;5118134;28;20354;-71
2023/07/07 00:14:11;;;;;;;3.53;2.92;;;15.70;1.00;;;;;;5125485;28;20446;-70
2023/07/07 00:16:42;;;;;;;4.80;2.40;;;15.70;1.00;;;;;;5118544;28;20056;-73
2023/07/07 00:19:15;;;;;;;5.90;2.67;;;15.80;99.90;;;;;;5151364;28;20030;-70
2023/07/07 00:21:57;;;;;;;3.63;2.20;;;15.70;99.90;;;;;;5105835;28;20031;-70
2023/07/07 00:24:28;;;;;;;3.65;2.50;;;15.70;1.00;;;;;;5103214;28;20049;-71
2023/07/07 00:27:02;;;;;;;2.67;2.40;;;15.60;99.90;;;;;;5124320;28;20035;-72
2023/07/07 00:29:36;;;;;;;4.30;2.60;;;15.60;1.00;;;;;;5119706;28;20039;-70
2023/07/07 00:32:08;;;;;;;3.35;2.22;;;15.60;1.00;;;;;;5118020;28;20039;-71
2023/07/07 00:34:42;;;;;;;3.85;2.47;;;15.50;1.00;;;;;;5116597;28;20041;-73
2023/07/07 00:37:14;;;;;;;3.03;2.53;;;15.50;1.00;;;;;;5139912;28;20663;-70
2023/07/07 00:39:45;;;;;;;5.40;2.47;;;15.50;1.00;;;;;;5103841;28;20053;-70
2023/07/07 00:42:19;;;;;;;8.45;2.30;;;15.40;1.00;;;;;;5101291;28;20296;-70
2023/07/07 00:45:20;;;;;;;2.97;2.00;;;15.40;1.00;;;;;;5103155;28;20385;-71
2023/07/07 00:47:58;;;;;;;3.60;2.17;;;15.50;1.00;;;;;;5129759;28;20042;-71
2023/07/07 00:50:37;;;;;;;2.63;1.80;;;15.60;99.90;;;;;;5098496;28;20229;-70
2023/07/07 00:53:12;;;;;;;4.18;2.33;;;15.50;99.90;;;;;;5133479;28;20035;-72
2023/07/07 00:55:48;;;;;;;3.35;2.22;;;15.50;99.90;;;;;;5105099;28;20065;-71
2023/07/07 00:58:23;;;;;;;3.22;2.28;;;15.40;99.90;;;;;;5102235;28;20050;-71
2023/07/07 01:03:45;;;;;;;4.07;2.47;;;15.50;99.90;;;;;;5129817;22;20059;-71
2023/07/07 01:06:30;;;;;;;3.38;2.40;;;15.50;99.90;;;;;;5100589;28;20047;-71
2023/07/07 01:09:10;;;;;;;3.03;2.25;;;15.60;99.90;;;;;;5097168;28;20061;-71
2023/07/07 01:11:44;;;;;;;3.22;2.30;;;15.60;99.90;;;;;;5099141;28;20035;-70
2023/07/07 01:14:24;;;;;;;2.97;2.35;;;15.70;1.00;;;;;;5092046;28;20041;-70
2023/07/07 01:17:13;;;;;;;2.40;1.98;;;15.70;1.00;;;;;;5079585;28;20035;-69
2023/07/07 01:20:12;;;;;;;2.88;1.90;;;15.70;1.00;;;;;;5075299;28;20048;-71
2023/07/07 01:23:00;;;;;;;2.72;2.08;;;15.70;1.00;;;;;;5076784;28;20035;-70
2023/07/07 01:26:06;;;;;;;3.58;2.25;;;15.60;99.90;;;;;;5115718;28;20031;-70
2023/07/07 01:28:48;;;;;;;4.38;3.03;;;15.50;99.90;;;;;;5123039;28;20045;-71
2023/07/07 01:31:28;;;;;;;2.22;2.03;;;15.40;99.90;;;;;;5092145;28;20399;-71
2023/07/07 01:34:02;;;;;;;3.75;2.35;;;15.30;99.90;;;;;;5082132;28;20579;-70
2023/07/07 01:36:33;;;;;;;;;;;15.20;1.00;;;;;;5069670;28;20035;-71
2023/07/07 01:39:10;;;;;;;4.03;2.67;;;15.10;1.00;;;;;;5097343;29;19914;-71
2023/07/07 01:41:44;;;;;;;4.40;1.90;;;15.10;1.00;;;;;;5110319;29;20053;-71
2023/07/07 01:44:25;;;;;;;5.78;2.78;;;15.10;1.00;;;;;;5095263;29;20037;-72
2023/07/07 01:47:02;;;;;;;2.95;2.10;;;15.10;1.00;;;;;;5079403;28;20536;-70
2023/07/07 01:49:55;;;;;;;3.70;2.28;;;15.10;1.00;;;;;;5082051;28;20044;-70
2023/07/07 01:52:50;;;;;;;3.10;2.35;;;15.20;1.00;;;;;;5085624;28;20036;-72
2023/07/07 01:55:26;;;;;;;3.58;2.30;;;15.20;1.00;;;;;;5093928;29;20046;-72
2023/07/07 01:58:00;;;;;;;3.83;2.63;;;15.20;99.90;;;;;;5095897;28;20040;-72
2023/07/07 02:00:35;;;;;;;3.22;2.53;;;15.20;99.90;;;;;;5079710;29;20054;-71
2023/07/07 02:03:09;;;;;;;3.70;2.20;;;15.30;99.90;;;;;;5098473;29;20481;-71
2023/07/07 02:05:46;;;;;;;4.43;2.30;;;15.30;99.90;;;;;;5091513;29;20033;-71
2023/07/07 02:08:18;;;;;;;2.35;2.00;;;15.30;99.90;;;;;;5100713;28;20115;-71
2023/07/07 02:10:51;;;;;;;4.70;2.55;;;15.20;1.00;;;;;;5079357;28;20035;-70
2023/07/07 02:13:23;;;;;;;3.33;2.27;;;15.20;1.00;;;;;;5093593;28;20053;-70
2023/07/07 02:15:56;;;;;;;4.07;2.50;;;15.20;1.00;;;;;;5093331;29;20273;-71
2023/07/07 02:18:31;;;;;;;3.13;2.20;;;15.20;1.00;;;;;;5079131;28;20182;-71
2023/07/07 02:21:05;;;;;;;5.68;2.47;;;15.20;1.00;;;;;;5172583;28;20035;-72
2023/07/07 02:23:37;;;;;;;3.90;2.50;;;15.20;1.00;;;;;;5068658;29;20049;-70
2023/07/07 02:26:13;;;;;;;3.33;2.17;;;15.10;1.00;;;;;;5154055;28;20053;-71
2023/07/07 02:28:49;;;;;;;3.33;2.38;;;15.10;1.00;;;;;;5084793;28;20272;-71
2023/07/07 02:31:24;;;;;;;3.72;3.00;;;15.10;1.00;;;;;;5096996;29;20031;-71
2023/07/07 02:33:58;;;;;;;3.67;2.47;;;14.90;1.00;;;;;;5095324;28;20252;-71
2023/07/07 02:36:29;;;;;;;4.75;2.58;;;14.90;1.00;;;;;;5116145;29;20037;-71
2023/07/07 02:39:00;;;;;;;2.15;1.90;;;14.90;1.00;;;;;;5082730;29;20058;-72
2023/07/07 02:41:33;;;;;;;3.17;2.10;;;14.80;1.00;;;;;;5095133;28;20043;-71
2023/07/07 02:44:06;;;;;;;4.75;2.28;;;14.70;1.00;;;;;;5048936;28;20040;-72
2023/07/07 02:46:44;;;;;;;5.25;2.60;;;14.60;1.00;;;;;;5062334;29;20046;-71
2023/07/07 02:49:16;;;;;;;4.25;2.30;;;14.60;1.00;;;;;;5073120;28;20047;-72
2023/07/07 02:51:52;;;;;;;3.50;2.08;;;14.60;1.00;;;;;;5077519;29;20511;-71
2023/07/07 02:54:24;;;;;;;3.65;2.35;;;14.50;1.00;;;;;;5092782;28;20043;-71
2023/07/07 02:56:57;;;;;;;3.63;2.58;;;14.50;1.00;;;;;;5113815;28;20035;-70
2023/07/07 02:59:29;;;;;;;3.25;2.85;;;14.50;1.00;;;;;;5064999;28;20533;-70
2023/07/07 03:02:00;;;;;;;4.85;2.35;;;14.50;1.00;;;;;;5088204;28;20035;-70
2023/07/07 03:04:32;;;;;;;3.63;2.70;;;14.50;1.00;;;;;;5093750;28;20517;-70
2023/07/07 03:07:05;;;;;;;2.25;1.98;;;14.60;1.00;;;;;;5104793;29;20047;-71
2023/07/07 03:09:37;;;;;;;2.83;2.35;;;14.70;1.00;;;;;;5178266;28;20220;-71
2023/07/07 03:12:11;;;;;;;3.17;2.15;;;14.70;1.00;;;;;;5101940;29;20038;-71
2023/07/07 03:14:45;;;;;;;4.18;2.65;;;14.70;1.00;;;;;;5092261;28;20031;-71
2023/07/07 03:17:16;;;;;;;3.25;2.05;;;14.70;1.00;;;;;;5071618;28;20031;-72
2023/07/07 03:19:50;;;;;;;3.58;2.30;;;14.70;1.00;;;;;;5098349;29;20045;-71
2023/07/07 03:22:21;;;;;;;8.27;2.88;;;14.80;1.00;;;;;;5081769;29;20043;-71
2023/07/07 03:24:55;;;;;;;2.90;2.30;;;14.90;1.00;;;;;;5097452;29;20045;-71
2023/07/07 03:27:27;;;;;;;4.10;2.30;;;14.90;1.00;;;;;;5110356;28;20569;-70
2023/07/07 03:30:01;;;;;;;4.10;2.72;;;15.00;1.00;;;;;;5098942;29;20253;-72
2023/07/07 03:32:32;;;;;;;3.75;1.92;;;15.10;1.00;;;;;;5078166;29;20027;-71
2023/07/07 03:35:06;;;;;;;3.55;2.58;;;15.10;1.00;;;;;;5096961;29;20035;-71
2023/07/07 03:37:40;;;;;;;2.83;2.03;;;15.20;1.00;;;;;;5070820;28;20042;-71
2023/07/07 03:40:12;;;;;;;2.72;2.40;;;15.20;1.00;;;;;;5112805;28;20023;-72
2023/07/07 03:42:43;;;;;;;3.33;3.00;;;15.30;1.00;;;;;;5107839;29;20536;-71
2023/07/07 03:45:16;;;;;;;3.92;2.40;;;15.30;1.00;;;;;;5081552;28;20389;-72
2023/07/07 03:47:48;;;;;;;4.18;2.25;;;15.20;1.00;;;;;;5097640;29;20404;-72
2023/07/07 03:50:22;;;;;;;3.30;2.47;;;15.20;1.00;;;;;;5098170;29;20035;-71
2023/07/07 03:52:56;;;;;;;3.70;2.38;;;15.20;1.00;;;;;;5067345;28;20037;-72
2023/07/07 03:55:27;;;;;;;3.60;2.63;;;15.30;1.00;;;;;;5081312;28;20039;-71
2023/07/07 03:57:59;;;;;;;3.75;2.92;;;15.40;1.00;;;;;;5113205;28;20038;-71
2023/07/07 04:00:31;;;;;;;2.40;2.20;;;15.60;1.00;;;;;;5110876;28;20047;-70
2023/07/07 04:03:02;;;;;;;3.50;2.15;;;15.70;1.00;;;;;;5100168;28;20053;-71
2023/07/07 04:05:43;;;;;;;5.40;2.30;;;15.90;1.00;;;;;;5088762;28;20376;-71
2023/07/07 04:08:22;;;;;;;3.35;2.08;;;16.20;1.00;;;;;;5079017;28;20035;-71
2023/07/07 04:11:08;;;;;;;4.07;2.45;;;16.40;99.90;;;;;;5097373;28;20039;-71
2023/07/07 04:13:44;;;;;;;7.45;2.08;;;16.70;99.90;;;;;;5094211;29;20043;-71
2023/07/07 04:16:19;;;;;;;3.60;2.35;;;17.10;99.90;;;;;;5102667;29;20034;-72
2023/07/07 04:18:55;;;;;;;4.07;2.10;;;17.40;1.00;;;;;;5103061;29;20133;-71
2023/07/07 04:21:30;;;;;;;8.68;2.33;;;17.60;99.90;;;;;;5099957;29;20027;-71
2023/07/07 04:24:01;;;;;;;;;;;17.70;1.00;;;;;;5094462;29;20102;-70
2023/07/07 04:26:32;;;;;;;3.08;1.95;;;17.90;99.90;;;;;;5068920;28;19910;-71
2023/07/07 04:29:04;;;;;;;3.40;2.20;;;18.00;99.90;;;;;;5115131;29;20045;-71
2023/07/07 04:31:38;;;;;;;4.20;2.22;;;17.90;99.90;;;;;;5083559;28;20064;-72
2023/07/07 04:34:09;;;;;;;2.88;2.15;;;18.20;99.90;;;;;;5096717;29;20035;-72
2023/07/07 04:36:43;;;;;;;3.22;2.22;;;18.50;99.90;;;;;;5097774;28;20031;-72
2023/07/07 04:39:15;;;;;;;;;;;18.80;1.00;;;;;;5083870;28;20324;-71
2023/07/07 04:41:53;;;;;;;5.07;2.42;;;19.10;1.00;;;;;;5107705;29;19949;-72
2023/07/07 04:44:25;;;;;;;4.97;2.72;;;19.60;1.00;;;;;;5114040;29;20039;-72
2023/07/07 04:46:56;;;;;;;2.42;1.70;;;20.00;99.60;;;;;;5076754;29;20177;-71
2023/07/07 04:49:33;;;;;;;4.53;2.53;;;20.50;1.00;;;;;;5111484;29;20039;-72
2023/07/07 04:52:07;;;;;;;3.17;2.08;;;21.00;1.00;;;;;;5079860;29;20035;-71
2023/07/07 04:54:42;;;;;;;3.45;2.03;;;21.40;1.00;;;;;;5162903;28;20031;-72
2023/07/07 04:57:14;;;;;;;4.10;2.47;;;22.00;1.00;;;;;;5082696;28;20045;-71
2023/07/07 04:59:48;;;;;;;2.95;1.90;;;22.40;1.00;;;;;;5075074;28;20054;-71
2023/07/07 05:02:22;;;;;;;3.47;2.40;;;22.60;99.90;;;;;;5080088;29;20046;-72
2023/07/07 05:04:56;;;;;;;4.85;2.38;;;22.70;1.00;;;;;;5114238;28;20272;-71
2023/07/07 05:07:30;;;;;;;3.90;2.78;;;22.60;1.00;;;;;;5080545;28;20054;-71
2023/07/07 05:10:05;;;;;;;2.60;1.92;;;22.70;1.00;;;;;;5095773;29;20044;-71
2023/07/07 05:12:39;;;;;;;2.65;1.65;;;22.80;1.00;;;;;;5095421;28;20035;-70
2023/07/07 05:15:11;;;;;;;2.80;2.10;;;22.80;1.00;;;;;;5084534;28;20047;-71
2023/07/07 05:17:42;;;;;;;2.85;1.92;;;23.10;1.00;;;;;;5120106;28;20066;-72
2023/07/07 05:20:16;;;;;;;2.33;1.85;;;23.30;99.90;;;;;;5089313;28;20275;-71
2023/07/07 05:22:48;;;;;;;4.28;2.22;;;23.20;99.90;;;;;;5087925;29;20038;-71
2023/07/07 05:25:22;;;;;;;3.20;2.10;;;23.30;1.00;;;;;;5087680;29;20033;-71
2023/07/07 05:27:53;;;;;;;3.15;2.33;;;23.40;99.90;;;;;;5087930;29;20043;-71
2023/07/07 05:30:24;;;;;;;4.05;2.20;;;23.20;20.00;;;;;;5106332;29;20336;-73
2023/07/07 05:32:56;;;;;;;2.67;1.90;;;22.60;1.00;;;;;;5115762;28;20047;-72
2023/07/07 05:35:28;;;;;;;5.20;2.75;;;22.40;1.00;;;;;;5113703;29;20149;-72
2023/07/07 05:38:05;;;;;;;3.50;2.20;;;22.60;1.00;;;;;;5118354;29;20369;-73
2023/07/07 05:40:42;;;;;;;3.90;1.90;;;22.80;1.00;;;;;;5103836;29;20041;-71
2023/07/07 05:43:21;;;;;;;3.08;1.90;;;23.10;1.00;;;;;;5123652;28;20047;-74
2023/07/07 05:46:02;;;;;;;4.22;1.95;;;23.40;1.00;;;;;;5097834;28;20067;-71
2023/07/07 05:48:34;;;;;;;4.75;2.50;;;23.50;1.00;;;;;;5170174;28;20023;-73
2023/07/07 05:51:12;;;;;;;5.07;2.00;;;23.40;1.00;;;;;;5120769;29;20245;-73
2023/07/07 05:53:47;;;;;;;4.47;2.50;;;23.60;1.00;;;;;;5120474;29;20487;-74
2023/07/07 05:56:21;;;;;;;3.30;2.10;;;23.60;1.00;;;;;;5100396;28;20047;-71
2023/07/07 05:58:57;;;;;;;3.28;2.05;;;23.70;1.00;;;;;;5085474;28;20043;-74
2023/07/07 06:01:33;;;;;;;2.90;1.80;;;23.60;1.00;;;;;;5083113;28;20043;-73
2023/07/07 06:04:05;;;;;;;4.40;2.38;;;23.80;1.00;;;;;;5099964;29;20386;-73
2023/07/07 06:06:39;;;;;;;3.95;2.22;;;23.90;1.00;;;;;;5086935;29;20047;-72
2023/07/07 06:09:11;;;;;;;;;;;24.40;1.00;;;;;;5086720;29;20051;-70
2023/07/07 06:11:44;;;;;;;4.90;2.50;;;24.30;1.00;;;;;;5090046;28;19914;-73
2023/07/07 06:14:16;;;;;;;4.00;2.30;;;23.80;1.00;;;;;;5088180;29;20423;-71
2023/07/07 06:16:49;;;;;;;4.13;1.80;;;23.60;1.00;;;;;;5103342;28;20031;-72
2023/07/07 06:19:21;;;;;;;2.53;2.00;;;24.10;1.00;;;;;;5080351;28;20543;-72
2023/07/07 06:21:52;;;;;;;2.67;1.90;;;24.40;1.00;;;;;;5108018;29;20041;-72
2023/07/07 06:24:23;;;;;;;4.00;2.60;;;24.90;1.00;;;;;;5100211;29;20035;-71
2023/07/07 06:26:54;;;;;;;3.17;1.73;;;25.30;1.00;;;;;;5080346;29;20363;-73
2023/07/07 06:29:26;;;;;;;4.47;2.47;;;25.60;1.00;;;;;;5081786;29;20050;-71
2023/07/07 06:32:00;;;;;;;4.57;2.30;;;25.50;1.00;;;;;;5107013;29;20042;-72
2023/07/07 06:34:31;;;;;;;3.33;2.30;;;25.60;1.00;;;;;;5166228;28;20043;-71
2023/07/07 06:37:06;;;;;;;2.78;2.17;;;25.40;1.00;;;;;;5108895;29;20032;-73
2023/07/07 06:39:43;;;;;;;2.47;1.95;;;26.00;1.00;;;;;;5080185;28;20074;-71
2023/07/07 06:42:15;;;;;;;5.10;2.78;;;26.00;1.00;;;;;;5098299;29;20040;-70
2023/07/07 06:44:46;;;;;;;3.15;2.53;;;26.00;1.00;;;;;;5099278;29;20039;-71
2023/07/07 06:47:18;;;;;;;3.58;2.10;;;25.60;1.00;;;;;;5067270;28;20577;-70
2023/07/07 06:49:52;;;;;;;2.95;2.00;;;25.50;1.00;;;;;;5117043;29;20113;-71
2023/07/07 06:52:23;;;;;;;2.30;2.00;;;26.20;1.00;;;;;;5117259;29;20023;-72
2023/07/07 06:54:57;;;;;;;3.67;2.47;;;26.30;1.00;;;;;;5099198;29;20035;-71
2023/07/07 06:57:28;;;;;;;;;;;26.50;1.00;;;;;;5070403;28;20043;-71
2023/07/07 07:00:06;;;;;;;3.38;1.90;;;26.90;1.00;;;;;;5116721;29;19956;-71
2023/07/07 07:02:38;;;;;;;2.92;1.77;;;27.60;1.00;;;;;;5084704;28;20039;-71
2023/07/07 07:05:15;;;;;;;3.08;2.00;;;28.10;1.00;;;;;;5101331;28;20114;-70
2023/07/07 07:07:47;;;;;;;2.47;2.00;;;27.40;1.00;;;;;;5115204;29;20386;-70
2023/07/07 07:10:22;;;;;;;3.28;1.95;;;26.60;99.90;;;;;;5082762;28;20039;-71
2023/07/07 07:12:58;;;;;;;3.25;2.03;;;26.70;99.90;;;;;;5100903;28;20031;-71
2023/07/07 07:15:30;;;;;;;2.90;2.00;;;27.10;1.00;;;;;;5115503;29;20306;-71
2023/07/07 07:18:04;;;;;;;2.85;1.65;;;27.40;1.00;;;;;;5090609;28;20042;-71
2023/07/07 07:20:35;;;;;;;2.60;2.10;;;28.10;1.00;;;;;;5080276;29;20043;-72
2023/07/07 07:23:09;;;;;;;3.85;2.15;;;27.40;99.90;;;;;;5079595;29;20247;-72
2023/07/07 07:25:45;;;;;;;2.65;1.98;;;27.40;1.00;;;;;;5095420;29;20036;-71
2023/07/07 07:28:23;;;;;;;4.70;1.88;;;27.00;1.00;;;;;;5098353;29;20027;-71
2023/07/07 07:30:56;;;;;;;3.58;1.83;;;26.70;1.00;;;;;;5109196;29;20046;-71
2023/07/07 07:33:31;;;;;;;3.10;1.88;;;27.00;1.00;;;;;;5069283;28;20054;-73
2023/07/07 07:36:08;;;;;;;3.63;2.00;;;27.30;99.90;;;;;;5164128;28;20295;-70
2023/07/07 07:38:41;;;;;;;3.25;1.85;;;27.10;99.90;;;;;;5106696;29;20038;-71
2023/07/07 07:41:13;;;;;;;4.28;2.10;;;27.00;1.00;;;;;;5079862;29;20044;-70
2023/07/07 07:43:48;;;;;;;3.08;2.00;;;27.20;1.00;;;;;;5089263;29;20028;-72
2023/07/07 07:46:19;;;;;;;3.70;2.45;;;27.60;99.90;;;;;;5095191;29;20032;-72
2023/07/07 07:48:50;;;;;;;3.95;2.03;;;28.10;99.90;;;;;;5079090;29;20036;-72
2023/07/07 07:51:22;;;;;;;2.22;1.83;;;28.60;1.00;;;;;;5094588;29;20031;-71
2023/07/07 07:53:54;;;;;;;2.88;1.83;;;28.40;99.90;;;;;;5094567;29;20040;-72
2023/07/07 07:56:26;;;;;;;2.70;1.85;;;28.30;99.90;;;;;;5082371;28;20345;-72
2023/07/07 07:58:58;;;;;;;3.17;1.92;;;27.60;99.90;;;;;;5067569;28;20055;-70
2023/07/07 08:01:30;;;;;;;2.95;1.90;;;27.60;99.90;;;;;;5089409;28;20035;-71
2023/07/07 08:04:07;;;;;;;3.08;1.58;;;28.20;99.90;;;;;;5165065;28;20057;-71
2023/07/07 08:06:41;;;;;;;3.63;1.75;;;28.30;99.90;;;;;;5115725;29;20040;-71
2023/07/07 08:09:12;;;;;;;3.03;1.95;;;28.90;99.90;;;;;;5098417;29;20676;-71
2023/07/07 08:11:44;;;;;;;2.85;2.22;;;29.10;99.90;;;;;;5108324;28;20043;-71
2023/07/07 08:14:22;;;;;;;2.85;1.98;;;28.60;99.90;;;;;;5116224;29;20035;-72
2023/07/07 08:16:53;;;;;;;2.00;1.58;;;28.40;99.90;;;;;;5113037;29;20023;-71
2023/07/07 08:19:27;;;;;;;2.42;1.70;;;28.20;99.90;;;;;;5114163;29;20031;-72
2023/07/07 08:22:01;;;;;;;3.63;1.75;;;28.50;99.90;;;;;;5100971;28;20264;-72
2023/07/07 08:24:48;;;;;;;5.53;1.83;;;28.50;99.90;;;;;;5094845;29;20036;-71
2023/07/07 08:27:23;;;;;;;2.90;1.80;;;28.30;99.90;;;;;;5079348;29;20032;-72
2023/07/07 08:29:55;;;;;;;2.95;2.03;;;28.70;99.90;;;;;;5099823;28;20361;-72
2023/07/07 08:32:26;;;;;;;5.47;1.85;;;29.30;99.90;;;;;;5123608;28;20037;-71
2023/07/07 08:34:57;;;;;;;3.10;2.20;;;29.00;99.90;;;;;;5165647;28;20041;-71
2023/07/07 08:37:33;;;;;;;6.63;2.42;;;28.10;99.90;;;;;;5132000;28;20039;-72
2023/07/07 08:40:06;;;;;;;3.03;2.00;;;27.90;99.90;;;;;;5082229;29;20043;-71
2023/07/07 08:42:40;;;;;;;2.83;1.95;;;28.20;99.90;;;;;;5094890;29;20038;-71
2023/07/07 08:45:20;;;;;;;4.10;1.67;;;28.70;99.90;;;;;;5134546;28;20047;-71
2023/07/07 08:47:58;;;;;;;3.28;1.67;;;29.20;99.90;;;;;;5078432;29;20281;-71
2023/07/07 08:50:47;;;;;;;3.60;1.80;;;29.50;99.90;;;;;;5079408;28;20031;-71
2023/07/07 08:53:36;;;;;;;2.40;1.50;;;29.60;99.90;;;;;;5078798;29;20051;-72
2023/07/07 08:56:29;;;;;;;3.47;2.00;;;29.40;99.90;;;;;;5078571;29;20050;-72
2023/07/07 08:59:12;;;;;;;3.10;1.90;;;29.50;99.90;;;;;;5078334;29;20028;-72
2023/07/07 09:01:56;;;;;;;5.43;2.13;;;29.80;99.90;;;;;;5103336;28;20034;-71
2023/07/07 09:04:51;;;;;;;3.30;2.08;;;28.50;99.90;;;;;;5082623;28;20066;-71
2023/07/07 09:07:57;;;;;;;4.88;2.60;;;27.50;99.90;;;;;;5161696;28;20453;-72
2023/07/07 09:10:49;;;;;;;3.33;1.95;;;26.70;99.90;;;;;;5162401;28;20036;-72
2023/07/07 09:13:31;;;;;;;3.40;2.25;;;27.30;99.90;;;;;;5099417;29;20045;-71
2023/07/07 09:16:04;;;;;;;3.53;2.08;;;28.40;99.90;;;;;;5169798;28;20050;-72
2023/07/07 09:19:00;;;;;;;3.35;2.03;;;29.40;99.90;;;;;;5103875;28;20036;-71
2023/07/07 09:21:45;;;;;;;2.63;1.70;;;29.40;99.90;;;;;;5116260;29;20051;-71
2023/07/07 09:24:41;;;;;;;2.67;1.98;;;29.20;99.90;;;;;;5083741;29;20043;-72
2023/07/07 09:27:27;;;;;;;2.60;1.58;;;29.40;99.90;;;;;;5115632;29;20041;-72
2023/07/07 09:30:46;;;;;;;2.90;2.10;;;29.80;99.90;;;;;;5084640;28;20106;-72
2023/07/07 09:33:20;;;;;;;3.10;1.90;;;30.10;99.90;;;;;;5105655;29;20066;-72
2023/07/07 09:36:13;;;;;;;2.83;1.60;;;30.20;99.90;;;;;;5079748;29;20040;-73
2023/07/07 09:38:53;;;;;;;2.63;1.95;;;30.40;99.90;;;;;;5064981;28;20039;-72
2023/07/07 09:41:46;;;;;;;2.20;1.92;;;30.40;99.90;;;;;;5063075;28;20042;-71
2023/07/07 09:44:23;;;;;;;2.50;1.90;;;30.60;99.90;;;;;;5097290;29;20031;-71
2023/07/07 09:47:15;;;;;;;2.72;2.22;;;30.60;99.90;;;;;;5097095;29;20035;-71
2023/07/07 09:50:18;;;;;;;4.28;2.05;;;30.70;99.90;;;;;;5082352;29;20045;-72
2023/07/07 09:53:10;;;;;;;2.28;1.90;;;31.10;99.90;;;;;;5083442;29;20035;-72
2023/07/07 09:55:45;;;;;;;2.92;1.75;;;31.60;99.90;;;;;;5098680;29;20027;-72
2023/07/07 09:58:33;;;;;;;2.65;1.80;;;32.30;99.90;;;;;;5098738;29;20209;-73
2023/07/07 10:01:08;;;;;;;2.35;1.83;;;32.40;99.90;;;;;;5112248;29;20044;-73
2023/07/07 10:03:45;;;;;;;3.05;1.77;;;32.70;99.90;;;;;;5111274;28;20054;-71
2023/07/07 10:06:35;;;;;;;2.45;1.77;;;33.30;99.90;;;;;;5082069;28;20042;-72
2023/07/07 10:09:16;;;;;;;2.75;1.75;;;33.10;99.90;;;;;;5097529;28;20032;-71
2023/07/07 10:11:51;;;;;;;4.10;1.77;;;33.30;99.90;;;;;;5098328;29;20036;-71
2023/07/07 10:14:31;;;;;;;2.38;1.70;;;32.70;99.90;;;;;;5098060;29;20052;-71
2023/07/07 10:17:12;;;;;;;2.13;1.77;;;32.40;99.90;;;;;;5102096;29;20035;-71
2023/07/07 10:19:58;;;;;;;2.55;2.00;;;31.70;99.90;;;;;;5112988;29;20027;-71
2023/07/07 10:22:35;;;;;;;2.95;1.50;;;31.30;99.90;;;;;;5101811;29;20047;-72
2023/07/07 10:25:11;;;;;;;1.88;1.40;;;31.30;99.90;;;;;;5113894;29;20035;-72
2023/07/07 10:27:53;;;;;;;2.25;1.40;;;32.00;99.90;;;;;;5084527;29;20036;-71
2023/07/07 10:30:26;;;;;;;2.40;1.60;;;32.20;99.90;;;;;;5096751;28;20039;-72
2023/07/07 10:32:58;;;;;;;2.22;1.75;;;32.70;99.90;;;;;;5117442;29;20037;-72
2023/07/07 10:35:36;;;;;;;3.25;1.55;;;33.40;99.90;;;;;;5105668;29;20478;-72
2023/07/07 10:38:12;;;;;;;2.28;1.58;;;32.80;99.90;;;;;;5081561;29;20075;-72
2023/07/07 10:40:45;;;;;;;2.55;1.73;;;33.60;99.90;;;;;;5065756;29;20319;-72
2023/07/07 10:43:21;;;;;;;2.95;1.90;;;33.40;99.90;;;;;;5098049;29;20038;-72
2023/07/07 10:45:53;;;;;;;2.38;1.60;;;34.20;99.90;;;;;;5079936;28;20042;-71
2023/07/07 10:48:24;;;;;;;4.43;1.45;;;35.00;99.90;;;;;;5080801;29;20036;-73
2023/07/07 10:51:06;;;;;;;4.20;1.98;;;35.10;99.90;;;;;;5080877;29;20065;-71
2023/07/07 10:53:53;;;;;;;4.72;2.25;;;34.50;99.90;;;;;;5100516;29;20039;-71
2023/07/07 10:56:29;;;;;;;1.92;1.65;;;34.50;99.90;;;;;;5083406;28;20043;-72
2023/07/07 10:59:22;;;;;;;3.28;1.63;;;35.60;99.90;;;;;;5178246;28;20039;-72
2023/07/07 11:02:18;;;;;;;2.42;1.70;;;35.20;99.90;;;;;;5169708;28;20042;-73
2023/07/07 11:05:04;;;;;;;2.15;1.60;;;34.00;99.90;;;;;;5109029;29;20020;-72
2023/07/07 11:07:57;;;;;;;2.08;1.63;;;34.50;99.90;;;;;;5080566;29;20036;-71
2023/07/07 11:10:37;;;;;;;1.52;1.40;;;35.90;99.90;;;;;;5088524;29;20562;-72
2023/07/07 11:13:23;;;;;;;4.40;1.73;;;35.50;99.90;;;;;;5080798;29;20040;-72
2023/07/07 11:16:20;;;;;;;2.45;1.80;;;35.00;99.90;;;;;;5079473;28;20036;-72
2023/07/07 11:19:19;;;;;;;2.92;2.33;;;36.80;99.90;;;;;;5102668;28;20037;-72
2023/07/07 11:22:16;;;;;;;1.80;1.70;;;38.20;99.90;;;;;;5117206;29;20043;-70
2023/07/07 11:25:09;;;;;;;2.35;1.73;;;38.60;99.90;;;;;;5098087;28;20040;-72
2023/07/07 11:27:49;;;;;;;2.30;2.03;;;38.60;99.90;;;;;;5111376;29;20026;-71
2023/07/07 11:30:41;;;;;;;3.53;1.90;;;37.80;99.90;;;;;;5084620;28;20212;-72
2023/07/07 11:33:51;;;;;;;1.85;1.50;;;35.40;99.90;;;;;;5111426;29;20031;-72
2023/07/07 11:36:39;;;;;;;2.13;1.83;;;34.40;99.10;;;;;;5158796;28;20042;-72
2023/07/07 11:39:16;;;;;;;1.92;1.65;;;34.40;99.90;;;;;;5141632;28;20034;-71
2023/07/07 11:42:16;;;;;;;3.05;1.75;;;33.60;90.90;;;;;;5126099;28;20057;-72
2023/07/07 11:44:48;;;;;;;2.28;1.48;;;32.70;67.50;;;;;;5117271;28;20042;-73
2023/07/07 11:47:47;;;;;;;2.70;1.50;;;33.40;99.90;;;;;;5140705;28;20049;-72
2023/07/07 11:50:47;;;;;;;3.53;1.88;;;35.10;99.90;;;;;;5140996;28;20044;-70
2023/07/07 11:53:52;;;;;;;2.35;1.40;;;35.30;99.90;;;;;;5142292;28;20048;-72
2023/07/07 11:56:35;;;;;;;2.65;1.63;;;35.90;80.80;;;;;;5124648;28;20048;-71
2023/07/07 11:59:37;;;;;;;2.42;1.85;;;37.30;99.90;;;;;;5141202;28;20030;-71
2023/07/07 12:02:24;;;;;;;1.50;1.40;;;35.40;44.50;;;;;;5157674;28;20165;-72
2023/07/07 12:05:01;;;;;;;2.05;1.83;;;35.30;9.40;;;;;;5127040;28;20038;-72
2023/07/07 12:08:02;;;;;;;1.92;1.17;;;36.40;72.00;;;;;;5142421;28;20054;-73
2023/07/07 12:10:44;;;;;;;1.65;1.55;;;37.80;99.90;;;;;;5157704;28;20038;-73
2023/07/07 12:13:57;;;;;;;1.88;1.58;;;39.50;95.30;;;;;;5144844;28;20122;-72
2023/07/07 12:16:35;;;;;;;1.85;1.52;;;37.80;86.20;;;;;;5139625;28;20320;-72
2023/07/07 12:19:20;;;;;;;1.75;1.35;;;36.10;46.30;;;;;;5099926;29;20027;-72
2023/07/07 12:21:58;;;;;;;1.90;1.63;;;33.50;1.00;;;;;;5157807;28;20474;-72
2023/07/07 12:24:56;;;;;;;5.03;2.58;;;34.60;43.10;;;;;;5165922;28;20038;-71
2023/07/07 12:27:39;;;;;;;2.35;1.63;;;36.90;62.30;;;;;;5100264;28;20037;-72
2023/07/07 12:30:19;;;;;;;2.50;1.60;;;38.80;41.20;;;;;;5095572;28;20061;-72
2023/07/07 12:32:51;;;;;;;2.22;1.73;;;40.30;90.90;;;;;;5116154;28;20489;-71
2023/07/07 12:35:30;;;;;;;1.92;1.80;;;40.80;99.90;;;;;;5117509;29;20047;-71
2023/07/07 12:38:27;;;;;;;2.92;1.60;;;40.00;97.20;;;;;;5164629;28;20037;-74
2023/07/07 12:41:06;;;;;;;2.70;1.77;;;38.20;31.50;;;;;;5095613;28;20288;-72
2023/07/07 12:43:50;;;;;;;1.98;1.40;;;37.50;14.80;;;;;;5093571;29;20046;-71
2023/07/07 12:46:31;;;;;;;;;;;35.60;1.00;;;;;;5116555;29;20316;-72
2023/07/07 12:49:22;;;;;;;3.03;2.03;;;33.60;17.40;;;;;;5099887;28;19910;-72
2023/07/07 12:52:00;;;;;;;1.65;1.38;;;33.60;1.00;;;;;;5085152;28;20043;-72
2023/07/07 12:54:39;;;;;;;4.05;1.50;;;32.60;1.00;;;;;;5084515;28;20535;-71
2023/07/07 12:57:26;;;;;;;3.75;1.95;;;34.10;1.00;;;;;;5094542;29;20424;-71
2023/07/07 13:00:26;;;;;;;2.60;1.50;;;35.50;8.30;;;;;;5097358;28;20035;-71
2023/07/07 13:03:09;;;;;;;1.63;1.20;;;36.00;3.20;;;;;;5082357;28;20058;-72
2023/07/07 13:05:48;;;;;;;2.30;1.90;;;38.20;10.80;;;;;;5181048;28;20049;-72
2023/07/07 13:08:42;;;;;;;1.98;1.30;;;40.30;99.90;;;;;;5097323;28;20386;-72
2023/07/07 13:11:35;;;;;;;1.98;1.65;;;38.50;59.70;;;;;;5097540;28;20084;-71
2023/07/07 13:14:26;;;;;;;1.73;1.20;;;38.20;44.10;;;;;;5099999;29;20027;-71
2023/07/07 13:17:27;;;;;;;1.75;1.45;;;39.80;79.70;;;;;;5064812;28;20043;-71
2023/07/07 13:20:06;;;;;;;1.90;1.70;;;41.50;99.90;;;;;;5084514;29;20062;-71
2023/07/07 13:22:44;;;;;;;1.95;1.50;;;39.00;40.40;;;;;;5084020;29;20047;-71
2023/07/07 13:25:29;;;;;;;3.63;1.75;;;36.70;27.40;;;;;;5083799;29;20040;-71
2023/07/07 13:28:11;;;;;;;1.88;1.65;;;36.90;1.00;;;;;;5083113;28;20049;-73
2023/07/07 13:30:51;;;;;;;1.80;1.65;;;37.40;57.10;;;;;;5116375;28;20051;-71
2023/07/07 13:33:28;;;;;;;1.58;1.48;;;36.90;1.00;;;;;;5101469;28;20031;-72
2023/07/07 13:36:08;;;;;;;2.30;1.40;;;36.60;66.40;;;;;;5119991;29;20379;-71
2023/07/07 13:38:47;;;;;;;2.25;1.60;;;36.90;1.00;;;;;;5103220;29;20332;-71
2023/07/07 13:41:25;;;;;;;1.85;1.13;;;38.50;44.50;;;;;;5098139;28;20047;-71
2023/07/07 13:43:57;;;;;;;2.33;1.58;;;39.80;14.50;;;;;;5110402;29;20041;-72
2023/07/07 13:46:30;;;;;;;2.85;2.05;;;38.70;95.90;;;;;;5102351;29;20604;-71
2023/07/07 13:49:13;;;;;;;1.50;1.38;;;38.50;99.90;;;;;;5103130;29;20050;-71
2023/07/07 13:51:54;;;;;;;;;;;37.30;97.50;;;;;;5119884;29;20043;-70
2023/07/07 13:54:26;;;;;;;2.83;1.75;;;36.80;91.10;;;;;;5104017;28;19910;-71